sensor_id;sensor_type;location;lat;lon;timestamp;pressure;altitude;pressure_sealevel;temperature;humidity
73501;BME280;61721;42.206;25.320;2023-03-14T00:00:30;100120.94;;;5.66;49.17
73501;BME280;61721;42.206;25.320;2023-03-14T00:02:57;100125.94;;;5.44;49.97
73501;BME280;61721;42.206;25.320;2023-03-14T00:05:24;100124.28;;;5.82;49.48
73501;BME280;61721;42.206;25.320;2023-03-14T00:07:52;100123.50;;;5.68;49.22
73501;BME280;61721;42.206;25.320;2023-03-14T00:10:19;100132.00;;;5.99;48.92
73501;BME280;61721;42.206;25.320;2023-03-14T00:12:48;100128.50;;;5.72;48.71
73501;BME280;61721;42.206;25.320;2023-03-14T00:15:15;100121.63;;;5.55;49.09
73501;BME280;61721;42.206;25.320;2023-03-14T00:17:43;100112.34;;;5.75;48.86
73501;BME280;61721;42.206;25.320;2023-03-14T00:20:11;100105.31;;;5.88;48.31
73501;BME280;61721;42.206;25.320;2023-03-14T00:22:39;100111.47;;;5.62;48.78
73501;BME280;61721;42.206;25.320;2023-03-14T00:25:08;100108.22;;;5.98;47.73
73501;BME280;61721;42.206;25.320;2023-03-14T00:27:36;100108.66;;;5.51;49.18
73501;BME280;61721;42.206;25.320;2023-03-14T00:30:06;100101.22;;;5.43;49.02
73501;BME280;61721;42.206;25.320;2023-03-14T00:32:34;100091.78;;;5.52;49.06
73501;BME280;61721;42.206;25.320;2023-03-14T00:35:02;100097.16;;;5.38;49.38
73501;BME280;61721;42.206;25.320;2023-03-14T00:37:30;100091.44;;;5.44;49.68
73501;BME280;61721;42.206;25.320;2023-03-14T00:39:57;100082.97;;;5.25;50.15
73501;BME280;61721;42.206;25.320;2023-03-14T00:42:24;100088.69;;;5.04;51.30
73501;BME280;61721;42.206;25.320;2023-03-14T00:44:51;100079.63;;;5.62;50.03
73501;BME280;61721;42.206;25.320;2023-03-14T00:47:20;100077.88;;;5.22;50.98
73501;BME280;61721;42.206;25.320;2023-03-14T00:49:47;100064.28;;;4.99;52.24
73501;BME280;61721;42.206;25.320;2023-03-14T00:52:14;100071.66;;;4.94;52.53
73501;BME280;61721;42.206;25.320;2023-03-14T00:54:41;100069.91;;;5.22;52.08
73501;BME280;61721;42.206;25.320;2023-03-14T00:57:09;100062.56;;;5.12;52.61
73501;BME280;61721;42.206;25.320;2023-03-14T00:59:36;100059.91;;;4.98;53.15
73501;BME280;61721;42.206;25.320;2023-03-14T01:02:03;100062.22;;;4.90;53.35
73501;BME280;61721;42.206;25.320;2023-03-14T01:04:32;100056.28;;;5.13;53.33
73501;BME280;61721;42.206;25.320;2023-03-14T01:07:00;100051.72;;;5.15;53.48
73501;BME280;61721;42.206;25.320;2023-03-14T01:09:27;100059.94;;;4.84;53.53
73501;BME280;61721;42.206;25.320;2023-03-14T01:11:54;100047.69;;;5.37;53.02
73501;BME280;61721;42.206;25.320;2023-03-14T01:14:21;100053.34;;;5.18;52.98
73501;BME280;61721;42.206;25.320;2023-03-14T01:16:48;100052.63;;;4.88;53.95
73501;BME280;61721;42.206;25.320;2023-03-14T01:19:16;100036.84;;;4.86;54.36
73501;BME280;61721;42.206;25.320;2023-03-14T01:21:44;100037.78;;;4.85;54.87
73501;BME280;61721;42.206;25.320;2023-03-14T01:24:12;100040.81;;;4.79;54.95
73501;BME280;61721;42.206;25.320;2023-03-14T01:26:39;100045.56;;;5.15;54.26
73501;BME280;61721;42.206;25.320;2023-03-14T01:29:06;100044.56;;;5.03;53.71
73501;BME280;61721;42.206;25.320;2023-03-14T01:31:33;100045.78;;;4.71;53.26
73501;BME280;61721;42.206;25.320;2023-03-14T01:34:00;100042.97;;;4.46;52.20
73501;BME280;61721;42.206;25.320;2023-03-14T01:36:27;100056.66;;;4.10;53.24
73501;BME280;61721;42.206;25.320;2023-03-14T01:38:56;100053.78;;;3.55;53.95
73501;BME280;61721;42.206;25.320;2023-03-14T01:41:25;100063.25;;;3.13;55.55
73501;BME280;61721;42.206;25.320;2023-03-14T01:43:52;100060.69;;;2.80;55.94
73501;BME280;61721;42.206;25.320;2023-03-14T01:46:24;100053.38;;;3.47;54.20
73501;BME280;61721;42.206;25.320;2023-03-14T01:48:57;100046.88;;;3.07;55.69
73501;BME280;61721;42.206;25.320;2023-03-14T01:51:28;100049.94;;;3.15;55.07
73501;BME280;61721;42.206;25.320;2023-03-14T01:54:05;100055.38;;;3.27;55.45
73501;BME280;61721;42.206;25.320;2023-03-14T01:56:35;100055.38;;;3.27;55.23
73501;BME280;61721;42.206;25.320;2023-03-14T01:59:04;100043.81;;;2.67;57.11
73501;BME280;61721;42.206;25.320;2023-03-14T02:01:34;100053.13;;;3.35;54.74
73501;BME280;61721;42.206;25.320;2023-03-14T02:04:05;100044.16;;;3.08;54.75
73501;BME280;61721;42.206;25.320;2023-03-14T02:06:40;100041.66;;;3.05;54.82
73501;BME280;61721;42.206;25.320;2023-03-14T02:09:10;100053.47;;;2.84;55.75
73501;BME280;61721;42.206;25.320;2023-03-14T02:11:38;100050.47;;;1.93;58.50
73501;BME280;61721;42.206;25.320;2023-03-14T02:14:05;100045.19;;;1.93;59.00
73501;BME280;61721;42.206;25.320;2023-03-14T02:16:34;100041.63;;;1.77;60.23
73501;BME280;61721;42.206;25.320;2023-03-14T02:19:02;100045.13;;;2.10;59.41
73501;BME280;61721;42.206;25.320;2023-03-14T02:21:42;100044.47;;;2.06;59.79
73501;BME280;61721;42.206;25.320;2023-03-14T02:24:17;100048.09;;;2.04;59.59
73501;BME280;61721;42.206;25.320;2023-03-14T02:27:07;100057.91;;;1.85;60.21
73501;BME280;61721;42.206;25.320;2023-03-14T02:29:37;100055.41;;;1.99;60.52
73501;BME280;61721;42.206;25.320;2023-03-14T02:32:07;100052.72;;;3.27;56.48
73501;BME280;61721;42.206;25.320;2023-03-14T02:34:35;100059.06;;;2.29;58.81
73501;BME280;61721;42.206;25.320;2023-03-14T02:37:03;100048.59;;;2.28;58.83
73501;BME280;61721;42.206;25.320;2023-03-14T02:39:35;100054.03;;;2.57;58.10
73501;BME280;61721;42.206;25.320;2023-03-14T02:42:03;100055.13;;;2.21;59.04
73501;BME280;61721;42.206;25.320;2023-03-14T02:44:32;100053.47;;;2.35;57.89
73501;BME280;61721;42.206;25.320;2023-03-14T02:47:02;100059.41;;;2.23;58.63
73501;BME280;61721;42.206;25.320;2023-03-14T02:49:31;100054.56;;;2.31;58.19
73501;BME280;61721;42.206;25.320;2023-03-14T02:51:59;100049.41;;;2.45;57.45
73501;BME280;61721;42.206;25.320;2023-03-14T02:54:26;100045.47;;;2.37;58.17
73501;BME280;61721;42.206;25.320;2023-03-14T02:56:54;100039.50;;;2.33;57.74
73501;BME280;61721;42.206;25.320;2023-03-14T02:59:21;100036.41;;;2.25;58.15
73501;BME280;61721;42.206;25.320;2023-03-14T03:01:49;100048.88;;;2.54;57.65
73501;BME280;61721;42.206;25.320;2023-03-14T03:04:17;100047.91;;;2.73;56.05
73501;BME280;61721;42.206;25.320;2023-03-14T03:06:44;100037.47;;;2.70;55.97
73501;BME280;61721;42.206;25.320;2023-03-14T03:09:11;100048.56;;;2.12;57.83
73501;BME280;61721;42.206;25.320;2023-03-14T03:11:38;100046.69;;;2.14;57.79
73501;BME280;61721;42.206;25.320;2023-03-14T03:14:05;100042.41;;;2.44;56.63
73501;BME280;61721;42.206;25.320;2023-03-14T03:16:33;100043.88;;;2.66;55.74
73501;BME280;61721;42.206;25.320;2023-03-14T03:19:01;100044.78;;;2.00;57.61
73501;BME280;61721;42.206;25.320;2023-03-14T03:21:28;100044.53;;;2.05;57.42
73501;BME280;61721;42.206;25.320;2023-03-14T03:23:56;100036.09;;;2.31;57.26
73501;BME280;61721;42.206;25.320;2023-03-14T03:26:23;100041.97;;;2.03;56.84
73501;BME280;61721;42.206;25.320;2023-03-14T03:28:51;100040.66;;;2.12;56.88
73501;BME280;61721;42.206;25.320;2023-03-14T03:31:18;100037.81;;;2.95;54.40
73501;BME280;61721;42.206;25.320;2023-03-14T03:33:45;100044.22;;;2.11;56.63
73501;BME280;61721;42.206;25.320;2023-03-14T03:36:14;100045.56;;;2.02;56.56
73501;BME280;61721;42.206;25.320;2023-03-14T03:38:41;100044.22;;;2.11;56.01
73501;BME280;61721;42.206;25.320;2023-03-14T03:41:08;100040.94;;;2.39;55.61
73501;BME280;61721;42.206;25.320;2023-03-14T03:43:35;100034.75;;;2.55;55.14
73501;BME280;61721;42.206;25.320;2023-03-14T03:46:03;100038.16;;;2.42;55.24
73501;BME280;61721;42.206;25.320;2023-03-14T03:48:31;100039.28;;;1.88;56.44
73501;BME280;61721;42.206;25.320;2023-03-14T03:50:58;100035.44;;;2.43;54.80
73501;BME280;61721;42.206;25.320;2023-03-14T03:53:27;100036.53;;;3.18;53.01
73501;BME280;61721;42.206;25.320;2023-03-14T03:55:54;100036.47;;;2.72;53.26
73501;BME280;61721;42.206;25.320;2023-03-14T03:58:22;100041.25;;;2.66;53.57
73501;BME280;61721;42.206;25.320;2023-03-14T04:00:49;100048.41;;;2.64;53.29
73501;BME280;61721;42.206;25.320;2023-03-14T04:03:16;100034.56;;;2.27;55.14
73501;BME280;61721;42.206;25.320;2023-03-14T04:05:43;100045.53;;;2.35;54.26
73501;BME280;61721;42.206;25.320;2023-03-14T04:08:10;100041.16;;;2.83;52.68
73501;BME280;61721;42.206;25.320;2023-03-14T04:10:40;100038.31;;;3.17;51.80
73501;BME280;61721;42.206;25.320;2023-03-14T04:13:07;100037.41;;;3.03;52.38
73501;BME280;61721;42.206;25.320;2023-03-14T04:15:34;100034.63;;;2.74;53.24
73501;BME280;61721;42.206;25.320;2023-03-14T04:18:01;100029.19;;;1.96;55.71
73501;BME280;61721;42.206;25.320;2023-03-14T04:20:29;100030.69;;;2.81;53.38
73501;BME280;61721;42.206;25.320;2023-03-14T04:22:56;100039.63;;;2.14;54.55
73501;BME280;61721;42.206;25.320;2023-03-14T04:25:23;100027.59;;;2.57;54.40
73501;BME280;61721;42.206;25.320;2023-03-14T04:27:52;100034.00;;;2.85;53.30
73501;BME280;61721;42.206;25.320;2023-03-14T04:30:19;100027.09;;;2.98;51.59
73501;BME280;61721;42.206;25.320;2023-03-14T04:32:46;100028.44;;;2.42;53.94
73501;BME280;61721;42.206;25.320;2023-03-14T04:35:13;100030.81;;;2.31;54.52
73501;BME280;61721;42.206;25.320;2023-03-14T04:37:40;100021.03;;;2.65;54.02
73501;BME280;61721;42.206;25.320;2023-03-14T04:40:15;100025.44;;;2.00;55.96
73501;BME280;61721;42.206;25.320;2023-03-14T04:42:42;100020.50;;;1.25;58.44
73501;BME280;61721;42.206;25.320;2023-03-14T04:45:11;100017.59;;;0.95;59.45
73501;BME280;61721;42.206;25.320;2023-03-14T04:47:38;100012.09;;;1.17;58.91
73501;BME280;61721;42.206;25.320;2023-03-14T04:50:06;100013.78;;;1.37;58.39
73501;BME280;61721;42.206;25.320;2023-03-14T04:52:33;100009.03;;;1.43;58.46
73501;BME280;61721;42.206;25.320;2023-03-14T04:55:00;100014.75;;;1.68;57.63
73501;BME280;61721;42.206;25.320;2023-03-14T04:57:27;100013.03;;;2.02;57.65
73501;BME280;61721;42.206;25.320;2023-03-14T04:59:55;100014.53;;;1.73;59.05
73501;BME280;61721;42.206;25.320;2023-03-14T05:02:37;100008.19;;;2.58;56.16
73501;BME280;61721;42.206;25.320;2023-03-14T05:05:05;100009.78;;;2.45;55.47
73501;BME280;61721;42.206;25.320;2023-03-14T05:07:33;100018.41;;;1.83;57.55
73501;BME280;61721;42.206;25.320;2023-03-14T05:10:00;100017.03;;;1.76;57.95
73501;BME280;61721;42.206;25.320;2023-03-14T05:12:27;100015.81;;;1.99;57.62
73501;BME280;61721;42.206;25.320;2023-03-14T05:14:54;100015.59;;;2.19;57.30
73501;BME280;61721;42.206;25.320;2023-03-14T05:17:22;100010.72;;;2.76;55.63
73501;BME280;61721;42.206;25.320;2023-03-14T05:19:51;100016.34;;;2.54;56.49
73501;BME280;61721;42.206;25.320;2023-03-14T05:22:18;100009.53;;;2.66;56.23
73501;BME280;61721;42.206;25.320;2023-03-14T05:24:46;100015.47;;;3.16;54.48
73501;BME280;61721;42.206;25.320;2023-03-14T05:27:13;100008.16;;;2.90;55.65
73501;BME280;61721;42.206;25.320;2023-03-14T05:29:40;100010.16;;;3.32;55.39
73501;BME280;61721;42.206;25.320;2023-03-14T05:32:12;100008.59;;;3.43;54.94
73501;BME280;61721;42.206;25.320;2023-03-14T05:34:39;100010.28;;;3.44;55.70
73501;BME280;61721;42.206;25.320;2023-03-14T05:37:08;100010.78;;;3.95;54.58
73501;BME280;61721;42.206;25.320;2023-03-14T05:39:35;100012.38;;;4.54;53.21
73501;BME280;61721;42.206;25.320;2023-03-14T05:42:02;100005.19;;;4.42;53.61
73501;BME280;61721;42.206;25.320;2023-03-14T05:44:29;99996.38;;;4.97;52.85
73501;BME280;61721;42.206;25.320;2023-03-14T05:46:57;100003.44;;;4.69;53.36
73501;BME280;61721;42.206;25.320;2023-03-14T05:49:24;99999.47;;;4.77;53.06
73501;BME280;61721;42.206;25.320;2023-03-14T05:51:51;100005.22;;;4.83;53.55
73501;BME280;61721;42.206;25.320;2023-03-14T05:54:20;100006.19;;;5.09;52.99
73501;BME280;61721;42.206;25.320;2023-03-14T05:56:47;100005.59;;;5.70;51.60
73501;BME280;61721;42.206;25.320;2023-03-14T05:59:14;100005.88;;;6.18;49.29
73501;BME280;61721;42.206;25.320;2023-03-14T06:01:41;100003.56;;;5.61;50.75
73501;BME280;61721;42.206;25.320;2023-03-14T06:04:08;100016.03;;;5.73;52.24
73501;BME280;61721;42.206;25.320;2023-03-14T06:06:36;100017.13;;;6.47;50.39
73501;BME280;61721;42.206;25.320;2023-03-14T06:09:04;100014.81;;;6.78;49.92
73501;BME280;61721;42.206;25.320;2023-03-14T06:11:32;100017.88;;;6.49;50.80
73501;BME280;61721;42.206;25.320;2023-03-14T06:13:59;100009.56;;;7.37;49.48
73501;BME280;61721;42.206;25.320;2023-03-14T06:16:27;100020.91;;;7.52;49.43
73501;BME280;61721;42.206;25.320;2023-03-14T06:18:54;100015.19;;;7.45;49.52
73501;BME280;61721;42.206;25.320;2023-03-14T06:21:21;100016.44;;;7.87;48.31
73501;BME280;61721;42.206;25.320;2023-03-14T06:23:48;100017.03;;;7.91;48.81
73501;BME280;61721;42.206;25.320;2023-03-14T06:26:16;100006.19;;;8.27;47.57
73501;BME280;61721;42.206;25.320;2023-03-14T06:28:44;100013.63;;;8.35;47.25
73501;BME280;61721;42.206;25.320;2023-03-14T06:31:11;100008.22;;;6.71;50.05
73501;BME280;61721;42.206;25.320;2023-03-14T06:33:39;100009.13;;;6.59;51.88
73501;BME280;61721;42.206;25.320;2023-03-14T06:36:08;100004.41;;;6.75;51.21
73501;BME280;61721;42.206;25.320;2023-03-14T06:38:37;100011.66;;;6.61;51.72
73501;BME280;61721;42.206;25.320;2023-03-14T06:41:04;100008.56;;;7.86;48.94
73501;BME280;61721;42.206;25.320;2023-03-14T06:43:31;100013.19;;;8.06;47.83
73501;BME280;61721;42.206;25.320;2023-03-14T06:46:00;100001.03;;;8.48;47.13
73501;BME280;61721;42.206;25.320;2023-03-14T06:48:27;100005.34;;;7.69;48.15
73501;BME280;61721;42.206;25.320;2023-03-14T06:50:55;100003.94;;;7.77;48.10
73501;BME280;61721;42.206;25.320;2023-03-14T06:53:22;100004.59;;;7.67;47.69
73501;BME280;61721;42.206;25.320;2023-03-14T06:55:50;99997.66;;;7.89;47.95
73501;BME280;61721;42.206;25.320;2023-03-14T06:58:17;99990.00;;;9.07;46.54
73501;BME280;61721;42.206;25.320;2023-03-14T07:00:44;99990.19;;;8.83;44.68
73501;BME280;61721;42.206;25.320;2023-03-14T07:03:14;99998.09;;;8.40;46.58
73501;BME280;61721;42.206;25.320;2023-03-14T07:05:41;99997.44;;;8.14;47.14
73501;BME280;61721;42.206;25.320;2023-03-14T07:08:08;99999.59;;;7.98;46.72
73501;BME280;61721;42.206;25.320;2023-03-14T07:10:36;99996.03;;;8.77;45.55
73501;BME280;61721;42.206;25.320;2023-03-14T07:13:03;99991.50;;;9.84;43.32
73501;BME280;61721;42.206;25.320;2023-03-14T07:15:30;99983.81;;;9.17;43.27
73501;BME280;61721;42.206;25.320;2023-03-14T07:17:58;99985.09;;;8.80;44.45
73501;BME280;61721;42.206;25.320;2023-03-14T07:20:26;99983.91;;;8.73;44.16
73501;BME280;61721;42.206;25.320;2023-03-14T07:22:58;99985.16;;;8.46;44.99
73501;BME280;61721;42.206;25.320;2023-03-14T07:25:26;99971.34;;;8.95;45.64
73501;BME280;61721;42.206;25.320;2023-03-14T07:27:53;99972.06;;;10.54;42.18
73501;BME280;61721;42.206;25.320;2023-03-14T07:30:20;99975.84;;;10.21;41.55
73501;BME280;61721;42.206;25.320;2023-03-14T07:32:47;99969.03;;;9.02;44.50
73501;BME280;61721;42.206;25.320;2023-03-14T07:35:15;99971.06;;;9.41;43.00
73501;BME280;61721;42.206;25.320;2023-03-14T07:37:43;99957.16;;;9.59;43.41
73501;BME280;61721;42.206;25.320;2023-03-14T07:40:11;99958.81;;;11.50;39.42
73501;BME280;61721;42.206;25.320;2023-03-14T07:42:41;99958.53;;;11.72;39.57
73501;BME280;61721;42.206;25.320;2023-03-14T07:45:09;99963.00;;;10.85;40.06
73501;BME280;61721;42.206;25.320;2023-03-14T07:47:37;99951.00;;;10.80;40.43
73501;BME280;61721;42.206;25.320;2023-03-14T07:50:06;99956.69;;;9.54;42.60
73501;BME280;61721;42.206;25.320;2023-03-14T07:52:33;99953.72;;;10.89;40.66
73501;BME280;61721;42.206;25.320;2023-03-14T07:55:02;99952.31;;;11.43;39.58
73501;BME280;61721;42.206;25.320;2023-03-14T07:57:29;99947.63;;;12.03;37.47
73501;BME280;61721;42.206;25.320;2023-03-14T07:59:57;99939.91;;;11.23;39.79
73501;BME280;61721;42.206;25.320;2023-03-14T08:02:24;99932.31;;;12.22;38.97
73501;BME280;61721;42.206;25.320;2023-03-14T08:04:51;99935.69;;;12.34;38.11
73501;BME280;61721;42.206;25.320;2023-03-14T08:07:18;99939.09;;;10.53;40.46
73501;BME280;61721;42.206;25.320;2023-03-14T08:09:45;99938.09;;;11.33;39.79
73501;BME280;61721;42.206;25.320;2023-03-14T08:12:14;99935.00;;;11.47;39.73
73501;BME280;61721;42.206;25.320;2023-03-14T08:14:42;99924.25;;;12.59;38.40
73501;BME280;61721;42.206;25.320;2023-03-14T08:17:09;99918.47;;;11.80;39.00
73501;BME280;61721;42.206;25.320;2023-03-14T08:19:36;99922.16;;;12.16;38.74
73501;BME280;61721;42.206;25.320;2023-03-14T08:22:04;99922.28;;;11.87;38.52
73501;BME280;61721;42.206;25.320;2023-03-14T08:24:31;99929.72;;;10.78;40.13
73501;BME280;61721;42.206;25.320;2023-03-14T08:26:59;99915.31;;;12.31;38.73
73501;BME280;61721;42.206;25.320;2023-03-14T08:29:28;99912.91;;;13.10;35.58
73501;BME280;61721;42.206;25.320;2023-03-14T08:31:56;99911.50;;;13.59;35.10
73501;BME280;61721;42.206;25.320;2023-03-14T08:34:23;99909.22;;;14.24;32.49
73501;BME280;61721;42.206;25.320;2023-03-14T08:36:51;99916.56;;;12.37;35.28
73501;BME280;61721;42.206;25.320;2023-03-14T08:39:18;99907.22;;;13.31;34.08
73501;BME280;61721;42.206;25.320;2023-03-14T08:41:45;99898.22;;;12.60;34.28
73501;BME280;61721;42.206;25.320;2023-03-14T08:44:12;99893.84;;;12.31;34.46
73501;BME280;61721;42.206;25.320;2023-03-14T08:46:41;99892.22;;;13.11;33.92
73501;BME280;61721;42.206;25.320;2023-03-14T08:49:08;99885.78;;;14.42;32.86
73501;BME280;61721;42.206;25.320;2023-03-14T08:51:35;99873.75;;;16.24;30.36
73501;BME280;61721;42.206;25.320;2023-03-14T08:54:02;99878.22;;;13.60;32.20
73501;BME280;61721;42.206;25.320;2023-03-14T08:56:30;99883.25;;;14.41;31.02
73501;BME280;61721;42.206;25.320;2023-03-14T08:58:57;99879.72;;;12.84;31.86
73501;BME280;61721;42.206;25.320;2023-03-14T09:01:24;99880.69;;;13.01;31.58
73501;BME280;61721;42.206;25.320;2023-03-14T09:03:53;99867.66;;;13.41;30.65
73501;BME280;61721;42.206;25.320;2023-03-14T09:06:20;99863.06;;;15.11;29.20
73501;BME280;61721;42.206;25.320;2023-03-14T09:08:47;99861.38;;;15.26;29.75
73501;BME280;61721;42.206;25.320;2023-03-14T09:11:14;99855.94;;;14.86;29.43
73501;BME280;61721;42.206;25.320;2023-03-14T09:13:43;99847.25;;;16.51;27.05
73501;BME280;61721;42.206;25.320;2023-03-14T09:16:10;99837.34;;;16.04;28.65
73501;BME280;61721;42.206;25.320;2023-03-14T09:18:37;99837.13;;;15.59;29.07
73501;BME280;61721;42.206;25.320;2023-03-14T09:21:07;99834.69;;;16.74;27.49
73501;BME280;61721;42.206;25.320;2023-03-14T09:23:34;99839.28;;;14.32;28.00
73501;BME280;61721;42.206;25.320;2023-03-14T09:26:01;99840.63;;;14.02;28.19
73501;BME280;61721;42.206;25.320;2023-03-14T09:28:29;99832.66;;;14.69;28.45
73501;BME280;61721;42.206;25.320;2023-03-14T09:30:56;99830.69;;;14.87;27.27
73501;BME280;61721;42.206;25.320;2023-03-14T09:33:23;99821.25;;;15.39;25.93
73501;BME280;61721;42.206;25.320;2023-03-14T09:35:51;99815.19;;;15.62;26.78
73501;BME280;61721;42.206;25.320;2023-03-14T09:38:19;99803.81;;;15.91;26.64
73501;BME280;61721;42.206;25.320;2023-03-14T09:40:47;99806.75;;;15.49;26.44
73501;BME280;61721;42.206;25.320;2023-03-14T09:43:15;99798.91;;;16.33;25.12
73501;BME280;61721;42.206;25.320;2023-03-14T09:45:44;99793.09;;;15.42;26.43
73501;BME280;61721;42.206;25.320;2023-03-14T09:48:16;99785.19;;;16.74;24.44
73501;BME280;61721;42.206;25.320;2023-03-14T09:50:46;99792.94;;;14.63;27.49
73501;BME280;61721;42.206;25.320;2023-03-14T09:53:14;99780.34;;;17.81;25.88
73501;BME280;61721;42.206;25.320;2023-03-14T09:55:45;99780.06;;;17.76;24.81
73501;BME280;61721;42.206;25.320;2023-03-14T09:58:14;99783.53;;;15.23;29.01
73501;BME280;61721;42.206;25.320;2023-03-14T10:00:43;99780.09;;;16.48;28.89
73501;BME280;61721;42.206;25.320;2023-03-14T10:03:23;99769.69;;;15.59;28.54
73501;BME280;61721;42.206;25.320;2023-03-14T10:05:51;99774.47;;;16.26;28.45
73501;BME280;61721;42.206;25.320;2023-03-14T10:08:19;99763.78;;;17.47;25.77
73501;BME280;61721;42.206;25.320;2023-03-14T10:10:48;99756.84;;;15.69;27.45
73501;BME280;61721;42.206;25.320;2023-03-14T10:13:19;99746.97;;;16.99;27.01
73501;BME280;61721;42.206;25.320;2023-03-14T10:15:51;99746.88;;;20.69;23.55
73501;BME280;61721;42.206;25.320;2023-03-14T10:18:19;99750.69;;;17.36;26.22
73501;BME280;61721;42.206;25.320;2023-03-14T10:20:47;99737.22;;;16.45;27.56
73501;BME280;61721;42.206;25.320;2023-03-14T10:23:23;99742.53;;;17.06;26.11
73501;BME280;61721;42.206;25.320;2023-03-14T10:26:04;99731.56;;;18.83;23.65
73501;BME280;61721;42.206;25.320;2023-03-14T10:28:33;99723.28;;;20.15;23.69
73501;BME280;61721;42.206;25.320;2023-03-14T10:31:01;99720.41;;;17.84;25.56
73501;BME280;61721;42.206;25.320;2023-03-14T10:33:29;99711.97;;;17.50;26.27
73501;BME280;61721;42.206;25.320;2023-03-14T10:35:59;99692.50;;;20.75;22.70
73501;BME280;61721;42.206;25.320;2023-03-14T10:38:28;99694.31;;;19.19;23.60
73501;BME280;61721;42.206;25.320;2023-03-14T10:40:56;99696.41;;;16.85;27.00
73501;BME280;61721;42.206;25.320;2023-03-14T10:43:27;99694.72;;;18.31;24.46
73501;BME280;61721;42.206;25.320;2023-03-14T10:45:58;99688.84;;;16.58;26.14
73501;BME280;61721;42.206;25.320;2023-03-14T10:48:31;99678.94;;;17.84;25.15
73501;BME280;61721;42.206;25.320;2023-03-14T10:51:04;99673.13;;;20.24;23.47
73501;BME280;61721;42.206;25.320;2023-03-14T10:53:41;99657.75;;;20.71;22.61
73501;BME280;61721;42.206;25.320;2023-03-14T10:56:12;99665.28;;;18.07;25.37
73501;BME280;61721;42.206;25.320;2023-03-14T10:58:43;99650.91;;;18.27;25.23
73501;BME280;61721;42.206;25.320;2023-03-14T11:01:35;99638.88;;;21.42;21.52
73501;BME280;61721;42.206;25.320;2023-03-14T11:04:14;99642.75;;;18.91;23.16
73501;BME280;61721;42.206;25.320;2023-03-14T11:06:51;99624.63;;;19.26;23.37
73501;BME280;61721;42.206;25.320;2023-03-14T11:09:28;99640.53;;;17.15;26.13
73501;BME280;61721;42.206;25.320;2023-03-14T11:12:00;99619.88;;;20.43;22.69
73501;BME280;61721;42.206;25.320;2023-03-14T11:14:35;99608.94;;;19.21;24.41
73501;BME280;61721;42.206;25.320;2023-03-14T11:17:10;99606.03;;;21.10;22.46
73501;BME280;61721;42.206;25.320;2023-03-14T11:19:51;99618.19;;;16.84;26.29
73501;BME280;61721;42.206;25.320;2023-03-14T11:22:21;99608.22;;;17.72;25.88
73501;BME280;61721;42.206;25.320;2023-03-14T11:25:09;99589.19;;;18.23;24.96
73501;BME280;61721;42.206;25.320;2023-03-14T11:27:42;99580.19;;;18.93;24.32
73501;BME280;61721;42.206;25.320;2023-03-14T11:30:19;99573.59;;;21.15;22.19
73501;BME280;61721;42.206;25.320;2023-03-14T11:32:55;99569.81;;;17.62;26.04
73501;BME280;61721;42.206;25.320;2023-03-14T11:35:27;99567.47;;;17.30;26.61
73501;BME280;61721;42.206;25.320;2023-03-14T11:38:01;99551.91;;;16.73;27.31
73501;BME280;61721;42.206;25.320;2023-03-14T11:40:31;99540.28;;;18.10;26.45
73501;BME280;61721;42.206;25.320;2023-03-14T11:43:06;99534.28;;;19.99;25.06
73501;BME280;61721;42.206;25.320;2023-03-14T11:45:41;99541.72;;;17.34;26.94
73501;BME280;61721;42.206;25.320;2023-03-14T11:48:22;99537.63;;;17.74;25.05
73501;BME280;61721;42.206;25.320;2023-03-14T11:50:53;99523.69;;;19.44;23.32
73501;BME280;61721;42.206;25.320;2023-03-14T11:53:33;99515.53;;;20.51;21.86
73501;BME280;61721;42.206;25.320;2023-03-14T11:56:03;99507.97;;;20.13;22.81
73501;BME280;61721;42.206;25.320;2023-03-14T11:58:34;99514.03;;;17.32;25.33
73501;BME280;61721;42.206;25.320;2023-03-14T12:01:09;99498.75;;;20.07;22.90
73501;BME280;61721;42.206;25.320;2023-03-14T12:03:44;99494.53;;;17.72;23.98
73501;BME280;61721;42.206;25.320;2023-03-14T12:06:16;99483.50;;;20.06;22.25
73501;BME280;61721;42.206;25.320;2023-03-14T12:08:49;99479.56;;;17.98;23.27
73501;BME280;61721;42.206;25.320;2023-03-14T12:11:22;99471.19;;;17.71;25.30
73501;BME280;61721;42.206;25.320;2023-03-14T12:13:52;99467.41;;;18.15;23.64
73501;BME280;61721;42.206;25.320;2023-03-14T12:16:37;99442.34;;;19.90;23.05
73501;BME280;61721;42.206;25.320;2023-03-14T12:19:32;99447.19;;;20.98;20.76
73501;BME280;61721;42.206;25.320;2023-03-14T12:22:07;99441.41;;;17.92;24.02
73501;BME280;61721;42.206;25.320;2023-03-14T12:24:37;99434.31;;;18.47;23.09
73501;BME280;61721;42.206;25.320;2023-03-14T12:27:06;99440.25;;;16.87;24.08
73501;BME280;61721;42.206;25.320;2023-03-14T12:29:56;99424.16;;;18.97;23.16
73501;BME280;61721;42.206;25.320;2023-03-14T12:32:26;99429.72;;;18.20;23.65
73501;BME280;61721;42.206;25.320;2023-03-14T12:34:53;99426.25;;;17.34;24.19
73501;BME280;61721;42.206;25.320;2023-03-14T12:37:27;99417.44;;;18.52;22.74
73501;BME280;61721;42.206;25.320;2023-03-14T12:40:05;99406.63;;;17.68;24.19
73501;BME280;61721;42.206;25.320;2023-03-14T12:42:43;99402.03;;;18.52;22.34
73501;BME280;61721;42.206;25.320;2023-03-14T12:45:24;99405.59;;;17.27;22.91
73501;BME280;61721;42.206;25.320;2023-03-14T12:48:01;99386.97;;;18.91;22.01
73501;BME280;61721;42.206;25.320;2023-03-14T12:50:33;99389.16;;;16.92;23.60
73501;BME280;61721;42.206;25.320;2023-03-14T12:56:15;99370.47;;;17.76;23.71
73501;BME280;61721;42.206;25.320;2023-03-14T12:58:55;99359.44;;;18.05;21.62
73501;BME280;61721;42.206;25.320;2023-03-14T13:01:25;99359.53;;;18.25;22.24
73501;BME280;61721;42.206;25.320;2023-03-14T13:03:56;99354.22;;;18.38;21.49